CDT,Max TemperatureF,Mean TemperatureF,Min TemperatureF,Max Dew PointF,MeanDew PointF,Min DewpointF,Max Humidity, Mean Humidity, Min Humidity, Max Sea Level PressureIn, Mean Sea Level PressureIn, Min Sea Level PressureIn, Max VisibilityMiles, Mean VisibilityMiles, Min VisibilityMiles, Max Wind SpeedMPH, Mean Wind SpeedMPH, Max Gust SpeedMPH,PrecipitationIn, CloudCover, Events, WindDirDegrees
2013-3-1,28,26,24,21,18,16,80,70,64,30.36,30.28,30.21,10,9,2,16,10,22,0.00,7,Snow,356
2013-3-2,35,28,21,21,17,12,74,66,48,30.37,30.29,30.15,10,9,5,10,6,,0.00,6,,79
2013-3-3,39,32,26,27,22,18,74,66,56,30.14,29.93,29.78,10,9,7,22,11,29,0.00,1,,139
2013-3-4,44,38,32,30,27,21,81,66,53,30.02,29.80,29.69,10,9,4,16,11,22,0.00,4,Rain-Snow,59
2013-3-5,33,30,26,27,18,14,75,63,51,30.39,30.19,30.01,10,10,5,26,15,39,0.00,8,Snow,322
2013-3-6,39,32,24,21,18,16,74,62,42,30.45,30.37,30.29,10,10,5,14,9,18,0.00,4,,52
2013-3-7,48,34,21,27,22,16,80,65,43,30.31,30.24,30.15,10,10,10,18,9,25,0.00,2,,123
2013-3-8,55,42,30,36,29,23,80,62,44,30.22,30.12,29.94,10,10,7,24,10,30,0.00,4,Rain,130
2013-3-9,51,46,41,46,41,36,87,79,71,29.94,29.74,29.59,10,7,1,26,13,32,0.04,8,Rain,155
2013-3-10,41,32,24,36,26,18,87,81,74,29.91,29.80,29.66,10,6,2,28,17,34,0.00,8,Rain-Snow,353
2013-3-11,33,28,23,21,18,18,80,71,56,30.01,29.92,29.86,10,9,2,18,11,29,0.00,6,Snow,307
2013-3-12,37,29,21,23,19,16,86,66,52,30.34,30.18,30.02,10,10,10,23,9,32,0.00,5,,297
2013-3-13,39,28,17,21,16,10,80,62,31,30.47,30.39,30.29,10,10,7,9,4,,0.00,2,,223
2013-3-14,60,45,30,37,29,21,87,59,36,30.29,30.13,30.09,10,10,5,12,8,,0.00,1,,196
2013-3-15,66,47,28,43,34,25,87,66,32,30.09,29.84,29.71,10,7,2,15,3,23,0.00,2,,347
2013-3-16,37,32,28,34,26,21,87,74,60,30.19,30.06,29.85,10,8,2,22,14,29,0.00,7,,17
2013-3-17,46,35,24,30,23,18,81,65,46,30.17,29.98,29.79,10,10,3,18,12,24,0.00,4,,104
2013-3-18,39,30,21,30,21,9,93,62,30,30.06,29.89,29.77,10,8,1,32,9,41,0.14,3,Rain-Snow,294
2013-3-19,50,34,19,28,14,7,80,52,22,30.31,30.17,30.07,10,10,10,18,4,20,0.00,2,,308
2013-3-20,35,25,15,18,5,-6,69,47,18,30.41,30.30,30.13,10,10,10,17,11,25,0.00,2,,335
2013-3-21,35,26,17,16,9,0,79,50,23,30.12,30.02,29.93,10,10,10,13,5,,0.00,3,,103
2013-3-22,35,30,26,19,15,10,69,50,35,30.05,30.01,29.98,10,10,10,9,6,,0.00,7,,84
2013-3-23,37,32,28,27,22,18,86,69,48,30.12,30.06,30.02,10,8,1,20,8,23,0.00,7,Snow,42
2013-3-24,30,27,24,23,20,18,80,73,64,30.07,30.03,30.00,10,6,2,23,14,29,0.00,8,Snow,342
2013-3-25,30,27,24,21,20,19,80,73,64,30.35,30.20,30.07,10,7,2,20,13,26,0.00,7,Snow,327
2013-3-26,41,29,17,21,17,12,80,63,39,30.40,30.34,30.27,10,10,10,9,4,,0.00,3,,246
2013-3-27,51,36,21,28,23,16,80,61,35,30.31,30.27,30.21,10,10,10,16,5,20,0.00,2,,128
2013-3-28,60,43,26,30,26,21,86,56,22,30.28,30.23,30.17,10,10,4,9,3,,0.00,2,,85
2013-3-29,69,48,28,36,25,12,86,49,11,30.26,30.18,30.08,10,9,4,15,6,21,0.00,2,,125
2013-3-30,68,56,44,52,40,28,87,60,24,30.11,29.97,29.88,10,10,7,23,8,24,0.19,4,Rain,231
2013-3-31,59,47,33,37,27,9,87,53,14,30.14,29.99,29.96,10,9,3,22,7,30,0.02,2,Rain-Snow,336